createdAt,value
2018-05-27T02:43:28.830Z,16.62
2018-05-27T02:46:05.801Z,16.61
2018-05-27T02:48:54.503Z,16.65
2018-05-27T02:51:35.525Z,16.61
2018-05-27T02:57:11.923Z,16.66
2018-05-27T02:59:58.118Z,16.56
2018-05-27T03:02:32.934Z,16.58
2018-05-27T03:05:28.765Z,16.50
2018-05-27T03:08:06.366Z,16.42
2018-05-27T03:13:57.798Z,16.26
2018-05-27T03:23:10.452Z,16.12
2018-05-27T03:25:50.201Z,16.12
2018-05-27T03:28:30.553Z,16.12
2018-05-27T03:31:18.492Z,16.09
2018-05-27T03:33:57.728Z,16.13
2018-05-27T03:36:54.678Z,16.19
2018-05-27T03:45:12.040Z,16.35
2018-05-27T03:51:05.315Z,16.49
2018-05-27T04:02:30.888Z,16.30
2018-05-27T04:05:15.454Z,16.39
2018-05-27T04:08:02.527Z,16.45
2018-05-27T04:10:39.344Z,16.45
2018-05-27T04:56:04.725Z,16.51
2018-05-27T05:02:06.258Z,16.52
2018-05-27T05:04:47.993Z,16.76
2018-05-27T05:07:23.027Z,16.83
2018-05-27T05:10:11.800Z,16.86
2018-05-27T05:12:51.953Z,16.96
2018-05-27T05:18:23.320Z,17.02
2018-05-27T09:12:44.566Z,18.50
2018-05-27T09:15:13.529Z,18.38
2018-05-27T09:17:41.849Z,18.43
2018-05-27T09:20:10.266Z,18.70
2018-05-27T09:22:38.584Z,18.82
2018-05-27T09:25:06.940Z,18.66
2018-05-27T09:27:35.241Z,18.61
2018-05-27T09:30:03.557Z,18.59
2018-05-27T09:32:31.855Z,18.63
2018-05-27T09:35:00.211Z,18.91
2018-05-27T09:37:29.027Z,18.99
2018-05-27T09:39:57.305Z,19.02
2018-05-27T09:42:26.175Z,19.25
2018-05-27T09:44:54.567Z,19.50
2018-05-27T09:47:22.883Z,19.25
2018-05-27T09:49:51.756Z,19.40
2018-05-27T09:52:20.124Z,19.10
2018-05-27T09:54:48.430Z,19.22
2018-05-27T09:57:17.013Z,19.28
2018-05-27T09:59:45.494Z,19.05
2018-05-27T10:02:13.866Z,18.99
2018-05-27T10:04:42.238Z,18.72
2018-05-27T10:07:10.584Z,18.88
2018-05-27T10:09:38.899Z,18.90
2018-05-27T10:12:07.250Z,18.82
2018-05-27T10:14:35.607Z,18.70
2018-05-27T10:17:03.927Z,18.64
2018-05-27T10:19:33.147Z,18.56
2018-05-27T10:22:01.499Z,18.45
2018-05-27T10:24:31.231Z,18.39
2018-05-27T10:27:00.485Z,18.26
2018-05-27T10:29:28.825Z,18.43
2018-05-27T10:31:57.165Z,18.30
2018-05-27T10:34:25.569Z,18.27
2018-05-27T10:36:53.902Z,18.25
2018-05-27T10:39:22.319Z,18.32
2018-05-27T10:41:50.847Z,18.48
2018-05-27T10:44:19.269Z,18.45
2018-05-27T10:46:47.660Z,18.26
2018-05-27T10:49:16.138Z,18.20
2018-05-27T10:51:45.453Z,18.48
2018-05-27T10:54:13.800Z,18.56
2018-05-27T10:56:42.670Z,18.50
2018-05-27T10:59:11.914Z,18.43
2018-05-27T11:01:40.311Z,18.40
2018-05-27T11:04:08.721Z,18.27
2018-05-27T11:06:37.074Z,18.30
2018-05-27T11:09:05.531Z,18.29
2018-05-27T11:11:33.909Z,18.31
2018-05-27T11:14:02.228Z,18.45
2018-05-27T11:16:30.631Z,18.51
2018-05-27T11:19:00.452Z,18.74
2018-05-27T11:21:28.777Z,18.81
2018-05-27T11:23:57.141Z,18.49
2018-05-27T11:26:25.855Z,18.57
2018-05-27T11:28:54.182Z,18.29
2018-05-27T11:31:23.184Z,18.48
2018-05-27T11:33:51.964Z,18.28
2018-05-27T11:36:20.469Z,18.20
2018-05-27T11:38:48.825Z,18.17
2018-05-27T11:41:18.031Z,18.27
2018-05-27T11:43:46.424Z,18.28
2018-05-27T11:46:15.035Z,18.41
2018-05-27T11:48:43.462Z,18.15
2018-05-27T11:51:12.036Z,18.00
2018-05-27T11:53:40.341Z,18.22
2018-05-27T11:56:09.264Z,18.42
2018-05-27T11:58:37.594Z,18.64
2018-05-27T12:01:05.930Z,18.49
2018-05-27T12:03:35.052Z,18.35
2018-05-27T12:06:03.378Z,18.27
2018-05-27T12:08:31.721Z,18.44
2018-05-27T12:11:00.494Z,19.17
2018-05-27T12:13:28.820Z,19.83
2018-05-27T12:15:57.217Z,20.60
2018-05-27T12:18:25.554Z,21.32
2018-05-27T12:20:53.900Z,21.36
2018-05-27T12:23:22.289Z,21.17
2018-05-27T12:25:50.791Z,20.80
2018-05-27T12:28:19.169Z,20.61
2018-05-27T12:30:47.545Z,20.30
2018-05-27T12:33:15.931Z,19.96
2018-05-27T12:35:44.394Z,20.05
2018-05-27T12:38:12.865Z,20.57
2018-05-27T12:40:42.417Z,20.90
2018-05-27T12:43:11.358Z,20.79
2018-05-27T12:45:39.722Z,20.88
2018-05-27T12:48:08.931Z,20.96
2018-05-27T12:50:37.242Z,20.92
2018-05-27T12:53:05.588Z,21.17
2018-05-27T12:55:33.971Z,20.97
2018-05-27T12:58:02.306Z,21.00
2018-05-27T13:00:30.614Z,21.02
2018-05-27T13:02:59.020Z,21.18
2018-05-27T13:05:27.348Z,20.91
2018-05-27T13:07:55.731Z,20.82
2018-05-27T13:10:25.092Z,20.75
2018-05-27T13:12:54.193Z,20.70
2018-05-27T13:15:22.557Z,20.53
2018-05-27T13:17:50.941Z,20.68
2018-05-27T13:20:19.576Z,20.82
2018-05-27T13:22:47.979Z,20.51
2018-05-27T13:25:17.335Z,20.19
2018-05-27T13:27:45.694Z,20.35
2018-05-27T13:30:15.101Z,20.36
2018-05-27T13:32:43.782Z,20.10
2018-05-27T13:35:12.160Z,19.97
2018-05-27T13:37:40.614Z,19.78
2018-05-27T13:40:09.061Z,20.01
2018-05-27T13:42:37.383Z,20.12
2018-05-27T13:45:05.772Z,20.10
2018-05-27T13:47:34.219Z,20.09
2018-05-27T13:50:02.549Z,20.09
2018-05-27T13:52:30.875Z,20.18
2018-05-27T13:54:59.209Z,20.28
2018-05-27T13:57:27.747Z,20.44
2018-05-27T13:59:56.349Z,20.49
2018-05-27T14:02:25.117Z,20.37
2018-05-27T14:04:53.505Z,20.43
2018-05-27T14:07:21.872Z,20.87
2018-05-27T14:09:50.480Z,21.26
2018-05-27T14:12:18.835Z,21.84
2018-05-27T14:14:47.221Z,22.25
2018-05-27T14:17:15.788Z,22.14
2018-05-27T14:19:44.106Z,22.41
2018-05-27T14:22:12.562Z,21.83
2018-05-27T14:24:41.044Z,21.70
2018-05-27T14:27:09.334Z,22.01
2018-05-27T14:29:37.682Z,22.37
2018-05-27T14:32:06.040Z,22.63
2018-05-27T14:34:34.335Z,22.89
2018-05-27T14:37:02.647Z,22.06
2018-05-27T14:39:31.292Z,21.60
2018-05-27T14:41:59.605Z,21.49
2018-05-27T14:44:28.567Z,21.33
2018-05-27T14:46:57.033Z,21.19
2018-05-27T14:49:25.346Z,20.81
2018-05-27T14:51:53.709Z,20.96
2018-05-27T14:54:22.081Z,20.69
2018-05-27T14:56:50.459Z,20.68
2018-05-27T14:59:18.920Z,20.39
2018-05-27T15:01:48.154Z,20.57
2018-05-27T15:04:16.518Z,20.71
2018-05-27T15:06:44.913Z,20.60
2018-05-27T15:09:13.529Z,20.58
2018-05-27T15:11:41.880Z,20.34
2018-05-27T15:14:10.268Z,20.21
2018-05-27T15:16:38.821Z,19.65
2018-05-27T15:19:07.138Z,19.46
2018-05-27T15:21:35.479Z,19.53
2018-05-27T15:24:04.266Z,19.23
2018-05-27T15:26:32.632Z,19.06
2018-05-27T15:29:00.937Z,18.90
2018-05-27T15:31:29.299Z,18.98
2018-05-27T15:33:57.613Z,18.92
2018-05-27T15:36:25.955Z,18.69
2018-05-27T15:38:55.032Z,18.84
2018-05-27T15:41:23.429Z,18.99
2018-05-27T15:43:51.786Z,18.74
2018-05-27T15:46:21.054Z,18.88
2018-05-27T15:48:49.432Z,18.89
2018-05-27T15:51:17.811Z,18.74
2018-05-27T15:53:46.698Z,18.57
2018-05-27T15:56:14.994Z,18.70
2018-05-27T15:58:43.394Z,18.80
2018-05-27T16:01:11.956Z,18.74
2018-05-27T16:03:40.925Z,18.64
2018-05-27T16:06:09.252Z,18.68
2018-05-27T16:08:37.635Z,18.76
2018-05-27T16:11:06.005Z,18.74
2018-05-27T16:13:34.307Z,18.52
2018-05-27T16:16:02.669Z,18.36
2018-05-27T16:18:30.954Z,18.41
2018-05-27T16:20:59.317Z,18.51
2018-05-27T16:23:28.434Z,18.60
2018-05-27T16:25:56.789Z,18.57
2018-05-27T16:28:25.126Z,18.72
2018-05-27T16:30:53.537Z,18.72
2018-05-27T16:33:21.890Z,18.68
2018-05-27T16:35:50.319Z,18.70
2018-05-27T16:38:18.786Z,18.65
2018-05-27T16:40:47.140Z,18.65
2018-05-27T16:43:15.849Z,18.51
2018-05-27T16:45:44.535Z,18.57
2018-05-27T16:48:12.891Z,18.42
2018-05-27T16:50:41.615Z,18.48
2018-05-27T16:53:09.998Z,18.65
2018-05-27T16:55:38.315Z,18.61
2018-05-27T16:58:06.650Z,18.56
2018-05-27T17:00:35.023Z,18.45
2018-05-27T17:03:03.389Z,18.62
2018-05-27T17:05:31.725Z,18.54
2018-05-27T17:08:00.157Z,18.72
2018-05-27T17:10:28.468Z,18.87
2018-05-27T17:12:56.862Z,18.64
2018-05-27T17:15:25.243Z,18.45
2018-05-27T17:17:53.984Z,18.41
2018-05-27T17:20:22.327Z,18.59
2018-05-27T17:22:50.881Z,18.43
2018-05-27T17:25:19.211Z,18.09
2018-05-27T17:27:47.759Z,18.12
2018-05-27T17:30:16.126Z,18.18
2018-05-27T17:32:44.548Z,18.29
2018-05-27T17:35:13.109Z,18.36
2018-05-27T17:37:41.593Z,18.15
2018-05-27T17:40:09.945Z,18.06
2018-05-27T17:42:38.273Z,17.88
2018-05-27T17:45:06.859Z,17.83
2018-05-27T17:47:35.186Z,17.77
2018-05-27T17:50:03.648Z,17.78
2018-05-27T17:52:32.938Z,17.60
2018-05-27T17:55:04.199Z,17.31
2018-05-27T17:57:32.595Z,17.18
2018-05-27T18:00:00.969Z,17.10
2018-05-27T18:02:29.332Z,16.96
2018-05-27T18:04:57.674Z,16.91
2018-05-27T18:07:26.909Z,16.87
2018-05-27T18:09:55.309Z,17.00
2018-05-27T18:12:24.117Z,16.91
2018-05-27T18:14:53.264Z,16.85
2018-05-27T18:17:21.626Z,16.93
2018-05-27T18:19:51.404Z,16.90
2018-05-27T18:22:20.031Z,16.94
2018-05-27T18:24:48.396Z,16.79
2018-05-27T18:27:16.756Z,16.78
2018-05-27T18:29:45.205Z,16.70
2018-05-27T18:32:13.588Z,16.77
2018-05-27T18:34:42.153Z,16.76
2018-05-27T18:37:10.526Z,16.85
2018-05-27T18:39:39.031Z,16.87
2018-05-27T18:42:07.377Z,16.98
2018-05-27T18:44:35.779Z,16.99
2018-05-27T18:47:04.101Z,16.84
2018-05-27T18:49:32.411Z,16.83
2018-05-27T18:52:00.966Z,16.97
2018-05-27T18:54:29.339Z,17.02
2018-05-27T18:56:57.670Z,16.84
2018-05-27T18:59:26.023Z,16.78
2018-05-27T19:01:54.376Z,16.68
2018-05-27T19:04:22.833Z,16.63
2018-05-27T19:06:51.276Z,16.49
2018-05-27T19:09:19.617Z,16.40
2018-05-27T19:11:49.845Z,16.53
2018-05-27T19:14:19.958Z,16.54
2018-05-27T19:16:49.245Z,16.29
2018-05-27T19:19:17.785Z,16.26
2018-05-27T19:21:46.639Z,16.31
2018-05-27T19:24:15.103Z,16.18
2018-05-27T19:26:43.482Z,16.27
2018-05-27T19:29:11.917Z,16.27
2018-05-27T19:31:40.240Z,16.24
2018-05-27T19:34:08.573Z,16.29
2018-05-27T19:36:37.928Z,16.21
2018-05-27T19:39:06.256Z,16.16
2018-05-27T19:41:34.573Z,16.14
2018-05-27T19:44:04.487Z,16.15
2018-05-27T19:46:32.823Z,16.06
2018-05-27T19:49:01.176Z,16.14
2018-05-27T19:51:30.186Z,16.06
2018-05-27T19:53:58.514Z,16.10
2018-05-27T19:56:26.841Z,16.13
2018-05-27T19:58:55.229Z,16.08
2018-05-27T20:01:23.584Z,16.17
2018-05-27T20:03:52.009Z,16.22
2018-05-27T20:06:20.747Z,16.23
2018-05-27T20:08:49.188Z,16.22
2018-05-27T20:11:17.592Z,16.30
2018-05-27T20:13:46.292Z,16.31
2018-05-27T20:16:14.602Z,16.37
2018-05-27T20:18:43.001Z,16.49
2018-05-27T20:21:11.488Z,16.55
2018-05-27T20:23:39.909Z,16.37
2018-05-27T20:26:11.263Z,16.38
2018-05-27T20:28:42.599Z,16.39
2018-05-27T20:31:13.348Z,16.39
2018-05-27T20:33:44.139Z,16.40
2018-05-27T20:36:14.535Z,16.37
2018-05-27T20:38:48.003Z,16.40
2018-05-27T20:41:21.609Z,16.39
2018-05-27T20:43:51.722Z,16.40
2018-05-27T20:46:23.102Z,16.40
2018-05-27T20:48:51.678Z,16.51
2018-05-27T20:51:23.514Z,16.58
2018-05-27T20:53:52.700Z,16.55
2018-05-27T20:56:21.174Z,16.60
2018-05-27T20:58:51.630Z,16.68
2018-05-27T21:01:23.077Z,16.68
2018-05-27T21:03:52.392Z,16.68
2018-05-27T21:06:23.009Z,16.53
2018-05-27T21:08:51.705Z,16.57
2018-05-27T21:11:20.447Z,16.49
2018-05-27T21:13:48.783Z,16.53
2018-05-27T21:16:17.415Z,16.37
2018-05-27T21:18:46.007Z,16.51
2018-05-27T21:21:14.431Z,16.35
2018-05-27T21:23:45.274Z,16.37
2018-05-27T21:26:13.893Z,16.37
2018-05-27T21:28:42.279Z,16.37
2018-05-27T21:31:10.859Z,16.29
2018-05-27T21:33:39.465Z,16.33
2018-05-27T21:36:07.789Z,16.33
2018-05-27T21:38:36.117Z,16.25
2018-05-27T21:41:04.476Z,16.27
2018-05-27T21:43:32.825Z,16.30
2018-05-27T21:46:01.168Z,16.25
2018-05-27T21:48:29.847Z,16.22
2018-05-27T21:50:59.133Z,16.25
2018-05-27T21:53:27.470Z,16.28
2018-05-27T21:55:55.842Z,16.25
2018-05-27T21:58:24.260Z,16.23
2018-05-27T22:00:52.902Z,16.26
2018-05-27T22:03:21.699Z,16.33
2018-05-27T22:05:50.059Z,16.34
2018-05-27T22:08:18.497Z,16.35
2018-05-27T22:10:46.946Z,16.37
2018-05-27T22:13:15.421Z,16.33
2018-05-27T22:15:44.274Z,16.35
2018-05-27T22:18:12.657Z,16.31
2018-05-27T22:20:40.995Z,16.34
2018-05-27T22:23:09.309Z,16.21
2018-05-27T22:25:37.665Z,16.32
2018-05-27T22:28:06.023Z,16.34
2018-05-27T22:30:34.339Z,16.32
2018-05-27T22:33:03.557Z,16.37
2018-05-27T22:35:31.873Z,16.36
2018-05-27T22:38:00.182Z,16.37
2018-05-27T22:40:28.861Z,16.38
2018-05-27T22:42:57.194Z,16.40
2018-05-27T22:45:25.720Z,16.47
2018-05-27T22:47:54.081Z,16.48
2018-05-27T22:50:22.456Z,16.55
2018-05-27T22:52:50.797Z,16.53
2018-05-27T22:55:19.223Z,16.51
2018-05-27T22:57:47.600Z,16.49
2018-05-27T23:00:15.959Z,16.58
2018-05-27T23:02:44.429Z,16.56
2018-05-27T23:05:12.820Z,16.55
2018-05-27T23:07:41.150Z,16.57
2018-05-27T23:10:09.754Z,16.61
2018-05-27T23:12:38.285Z,16.62
2018-05-27T23:15:06.649Z,16.70
2018-05-27T23:17:35.005Z,16.72
2018-05-27T23:20:09.254Z,16.73
2018-05-27T23:22:37.869Z,16.75
2018-05-27T23:25:06.259Z,16.77
2018-05-27T23:27:34.633Z,16.76
2018-05-27T23:30:04.159Z,16.67
2018-05-27T23:32:32.480Z,16.68
2018-05-27T23:35:00.786Z,16.68
2018-05-27T23:37:29.352Z,16.70
2018-05-27T23:39:57.719Z,16.69
2018-05-27T23:42:26.051Z,16.74
2018-05-27T23:44:54.778Z,16.72
2018-05-27T23:47:23.124Z,16.70
2018-05-27T23:49:51.448Z,16.76
2018-05-27T23:52:21.142Z,16.90
2018-05-27T23:54:49.597Z,16.71
2018-05-27T23:57:17.968Z,16.79
2018-05-27T23:59:46.393Z,16.81
